Time;durP1;ratioP1;P1;durP2;ratioP2;P2;SDS_P1;SDS_P2;PMS_P1;PMS_P2;Temp;Humidity;BMP_temperature;BMP_pressure;BME280_temperature;BME280_humidity;BME280_pressure;Samples;Min_cycle;Max_cycle;Signal;HPM_P1;HPM_P2
2023/06/15 00:01:49;;;;;;;3.13;1.80;;;15.60;1.00;;;;;;5118551;28;20165;-80
2023/06/15 00:04:15;;;;;;;4.60;2.23;;;15.70;1.00;;;;;;5112786;28;20198;-81
2023/06/15 00:06:40;;;;;;;3.80;1.90;;;15.50;1.00;;;;;;5098313;28;20315;-81
2023/06/15 00:09:06;;;;;;;2.43;2.20;;;15.60;1.00;;;;;;5097843;28;20178;-81
2023/06/15 00:11:31;;;;;;;2.60;1.90;;;15.50;1.00;;;;;;5097840;28;20239;-80
2023/06/15 00:13:57;;;;;;;6.67;2.30;;;15.50;1.00;;;;;;5098928;28;20711;-81
2023/06/15 00:16:23;;;;;;;2.47;2.03;;;15.50;1.00;;;;;;5099820;28;20237;-81
2023/06/15 00:18:54;;;;;;;1.97;1.73;;;15.50;1.00;;;;;;5098098;28;20182;-81
2023/06/15 00:21:22;;;;;;;1.87;1.73;;;15.40;1.00;;;;;;5099638;28;20504;-80
2023/06/15 00:23:48;;;;;;;4.67;1.97;;;15.40;1.00;;;;;;5098323;28;20194;-81
2023/06/15 00:26:14;;;;;;;3.20;2.33;;;15.40;1.00;;;;;;5099423;28;20575;-80
2023/06/15 00:28:40;;;;;;;2.03;1.73;;;15.40;1.00;;;;;;5097264;28;20174;-81
2023/06/15 00:31:05;;;;;;;5.07;1.80;;;15.30;1.00;;;;;;5098471;28;20178;-81
2023/06/15 00:33:31;;;;;;;3.80;2.13;;;15.30;1.00;;;;;;5097531;28;20245;-80
2023/06/15 00:35:58;;;;;;;6.27;2.10;;;15.10;1.00;;;;;;5097648;28;20641;-81
2023/06/15 00:38:24;;;;;;;3.20;1.97;;;15.20;1.00;;;;;;5098120;28;20170;-81
2023/06/15 00:40:50;;;;;;;2.37;1.97;;;15.10;1.00;;;;;;5100376;28;20185;-81
2023/06/15 00:43:15;;;;;;;3.27;2.93;;;15.10;1.00;;;;;;5097624;28;20604;-81
2023/06/15 00:45:41;;;;;;;2.83;1.80;;;15.10;1.00;;;;;;5100140;28;20198;-81
2023/06/15 00:48:07;;;;;;;2.80;2.50;;;15.00;1.00;;;;;;5098566;28;20185;-81
2023/06/15 00:50:33;;;;;;;2.07;1.87;;;15.00;1.00;;;;;;5098317;28;20171;-81
2023/06/15 00:53:03;;;;;;;4.37;2.03;;;14.90;1.00;;;;;;5097702;28;20198;-81
2023/06/15 00:55:32;;;;;;;2.57;2.10;;;14.90;1.00;;;;;;5098682;28;20169;-81
2023/06/15 00:57:58;;;;;;;2.40;2.10;;;14.90;1.00;;;;;;5099802;28;20257;-81
2023/06/15 01:00:23;;;;;;;3.17;2.60;;;14.90;1.00;;;;;;5099676;28;20193;-81
2023/06/15 01:02:50;;;;;;;3.63;2.33;;;14.90;1.00;;;;;;5098292;28;20190;-81
2023/06/15 01:05:16;;;;;;;4.73;2.40;;;14.80;1.00;;;;;;5098715;28;20559;-81
2023/06/15 01:07:47;;;;;;;3.73;2.07;;;14.80;1.00;;;;;;5100307;28;20281;-80
2023/06/15 01:10:16;;;;;;;3.23;2.20;;;14.80;1.00;;;;;;5099393;28;20184;-81
2023/06/15 01:12:44;;;;;;;3.60;2.30;;;14.80;1.00;;;;;;5100871;28;20270;-81
2023/06/15 01:15:13;;;;;;;2.80;1.97;;;14.80;1.00;;;;;;5102227;28;20580;-81
2023/06/15 01:17:44;;;;;;;5.10;2.30;;;14.80;1.00;;;;;;5099679;28;20178;-81
2023/06/15 01:20:24;;;;;;;4.67;2.23;;;14.70;1.00;;;;;;5098682;28;20170;-80
2023/06/15 01:23:21;;;;;;;3.20;2.00;;;14.60;1.00;;;;;;5097937;28;20194;-79
2023/06/15 01:25:49;;;;;;;4.60;2.13;;;14.60;1.00;;;;;;5098421;28;20209;-80
2023/06/15 01:28:17;;;;;;;2.80;2.37;;;14.50;1.00;;;;;;5096450;28;20205;-80
2023/06/15 01:30:46;;;;;;;5.63;2.40;;;14.50;1.00;;;;;;5096517;28;20640;-81
2023/06/15 01:33:12;;;;;;;2.70;1.97;;;14.40;1.00;;;;;;5096650;28;20201;-79
2023/06/15 01:35:38;;;;;;;2.23;2.03;;;14.40;1.00;;;;;;5088029;28;20190;-80
2023/06/15 01:38:04;;;;;;;2.87;2.43;;;14.40;1.00;;;;;;5082502;28;20190;-80
2023/06/15 01:40:33;;;;;;;3.07;2.63;;;14.40;1.00;;;;;;5098379;28;20269;-81
2023/06/15 01:43:00;;;;;;;2.53;2.33;;;14.40;1.00;;;;;;5101207;28;20206;-81
2023/06/15 01:45:27;;;;;;;4.10;2.23;;;14.30;1.00;;;;;;5101000;28;20170;-81
2023/06/15 01:47:54;;;;;;;4.83;2.20;;;14.30;1.00;;;;;;5102672;28;20642;-81
2023/06/15 01:50:21;;;;;;;2.97;2.37;;;14.30;1.00;;;;;;5103421;28;20178;-80
2023/06/15 01:52:46;;;;;;;5.33;2.50;;;14.30;1.00;;;;;;5102672;28;20228;-81
2023/06/15 01:55:12;;;;;;;3.43;2.37;;;14.20;1.00;;;;;;5101183;28;20634;-81
2023/06/15 01:57:39;;;;;;;3.13;2.20;;;14.20;1.00;;;;;;5100940;28;20178;-80
2023/06/15 02:00:06;;;;;;;2.53;2.20;;;14.20;1.00;;;;;;5099858;28;20298;-81
2023/06/15 02:02:32;;;;;;;2.93;2.33;;;14.10;1.00;;;;;;5100217;28;20259;-80
2023/06/15 02:04:57;;;;;;;7.10;2.40;;;14.10;1.00;;;;;;5100548;28;20340;-81
2023/06/15 02:07:23;;;;;;;2.97;2.40;;;14.10;1.00;;;;;;5100263;28;20282;-81
2023/06/15 02:09:49;;;;;;;2.50;2.30;;;14.00;1.00;;;;;;5100508;28;20167;-80
2023/06/15 02:12:14;;;;;;;3.80;2.37;;;14.00;1.00;;;;;;5098684;28;20186;-81
2023/06/15 02:14:40;;;;;;;2.43;2.10;;;14.00;1.00;;;;;;5099853;28;20246;-81
2023/06/15 02:17:06;;;;;;;2.50;2.30;;;14.00;1.00;;;;;;5099166;28;20228;-81
2023/06/15 02:19:31;;;;;;;2.77;2.27;;;14.00;1.00;;;;;;5098552;28;20230;-80
2023/06/15 02:21:57;;;;;;;4.00;2.20;;;13.90;1.00;;;;;;5099032;28;20184;-81
2023/06/15 02:24:23;;;;;;;2.63;2.37;;;13.90;1.00;;;;;;5098460;28;20214;-81
2023/06/15 02:26:49;;;;;;;2.30;2.10;;;13.90;1.00;;;;;;5098845;28;20679;-81
2023/06/15 02:29:15;;;;;;;2.80;2.23;;;13.90;1.00;;;;;;5099721;28;20265;-80
2023/06/15 02:31:40;;;;;;;4.23;2.33;;;13.90;1.00;;;;;;5099992;28;20217;-81
2023/06/15 02:34:06;;;;;;;2.37;2.10;;;13.80;1.00;;;;;;5100665;28;20229;-81
2023/06/15 02:36:34;;;;;;;3.13;2.53;;;13.80;1.00;;;;;;5101394;28;20200;-81
2023/06/15 02:39:00;;;;;;;5.33;2.70;;;13.80;1.00;;;;;;5102396;28;20177;-80
2023/06/15 02:41:26;;;;;;;4.93;2.33;;;13.80;1.00;;;;;;5102443;28;20178;-81
2023/06/15 02:43:52;;;;;;;3.83;2.23;;;13.80;1.00;;;;;;5100479;28;20289;-79
2023/06/15 02:46:18;;;;;;;4.33;2.03;;;13.80;1.00;;;;;;5101699;28;20274;-81
2023/06/15 02:48:44;;;;;;;2.53;2.00;;;13.70;1.00;;;;;;5101482;28;20173;-81
2023/06/15 02:51:10;;;;;;;3.67;2.30;;;13.70;1.00;;;;;;5100139;28;20241;-81
2023/06/15 02:53:35;;;;;;;5.80;2.60;;;13.70;1.00;;;;;;5101766;28;20226;-79
2023/06/15 02:56:02;;;;;;;3.50;2.23;;;13.70;1.00;;;;;;5100410;28;20178;-81
2023/06/15 02:58:32;;;;;;;3.33;2.47;;;13.70;1.00;;;;;;5100646;28;20553;-81
2023/06/15 03:01:00;;;;;;;3.97;2.37;;;13.60;1.00;;;;;;5099792;28;20182;-81
2023/06/15 03:03:27;;;;;;;3.97;2.53;;;13.60;1.00;;;;;;5101663;28;20201;-80
2023/06/15 03:05:54;;;;;;;2.67;2.47;;;13.60;1.00;;;;;;5102731;28;20213;-81
2023/06/15 03:08:23;;;;;;;3.30;2.67;;;13.60;1.00;;;;;;5101946;28;20189;-81
2023/06/15 03:10:52;;;;;;;3.93;2.83;;;13.60;1.00;;;;;;5102272;28;20713;-81
2023/06/15 03:13:18;;;;;;;6.57;2.80;;;13.50;1.00;;;;;;5101871;28;20200;-81
2023/06/15 03:15:43;;;;;;;5.27;2.57;;;13.50;1.00;;;;;;5104570;28;20602;-81
2023/06/15 03:18:09;;;;;;;5.27;2.43;;;13.50;1.00;;;;;;5104664;28;20170;-81
2023/06/15 03:20:35;;;;;;;2.50;2.17;;;13.50;1.00;;;;;;5104822;28;20181;-81
2023/06/15 03:23:00;;;;;;;2.63;2.40;;;13.50;1.00;;;;;;5104910;28;20206;-81
2023/06/15 03:25:26;;;;;;;5.67;2.90;;;13.50;1.00;;;;;;5106620;28;20213;-81
2023/06/15 03:27:59;;;;;;;3.27;2.53;;;13.50;1.00;;;;;;5104233;28;20217;-81
2023/06/15 03:30:28;;;;;;;3.50;2.60;;;13.50;1.00;;;;;;5107095;28;20625;-81
2023/06/15 03:32:54;;;;;;;4.63;2.63;;;13.50;1.00;;;;;;5105969;28;20293;-81
2023/06/15 03:35:20;;;;;;;3.07;2.50;;;13.50;1.00;;;;;;5111757;28;20185;-79
2023/06/15 03:37:46;;;;;;;3.97;2.40;;;13.50;1.00;;;;;;5118915;28;20162;-81
2023/06/15 03:40:12;;;;;;;6.47;2.87;;;13.50;1.00;;;;;;5118679;28;20166;-79
2023/06/15 03:42:38;;;;;;;3.97;3.00;;;13.40;1.00;;;;;;5101395;28;20208;-81
2023/06/15 03:45:05;;;;;;;4.07;2.90;;;13.40;1.00;;;;;;5101442;28;20178;-81
2023/06/15 03:47:32;;;;;;;3.47;2.87;;;13.40;1.00;;;;;;5089431;28;20206;-81
2023/06/15 03:49:58;;;;;;;4.97;2.60;;;13.40;1.00;;;;;;5081927;28;20664;-81
2023/06/15 03:52:25;;;;;;;3.10;2.80;;;13.40;1.00;;;;;;5079800;28;20178;-80
2023/06/15 03:54:51;;;;;;;2.97;2.67;;;13.30;1.00;;;;;;5102127;28;20177;-80
2023/06/15 03:57:16;;;;;;;5.53;2.90;;;13.30;1.00;;;;;;5098707;28;20179;-80
2023/06/15 03:59:42;;;;;;;2.97;2.63;;;13.50;1.00;;;;;;5096615;28;20185;-81
2023/06/15 04:02:07;;;;;;;4.30;3.10;;;13.30;1.00;;;;;;5097391;28;20186;-79
2023/06/15 04:04:33;;;;;;;2.93;2.57;;;13.40;1.00;;;;;;5095210;28;20190;-80
2023/06/15 04:06:59;;;;;;;3.10;2.80;;;13.30;1.00;;;;;;5096545;28;20665;-80
2023/06/15 04:09:24;;;;;;;2.80;2.60;;;13.40;1.00;;;;;;5096710;28;20637;-81
2023/06/15 04:11:50;;;;;;;4.60;3.00;;;13.40;1.00;;;;;;5096049;28;20544;-80
2023/06/15 04:14:18;;;;;;;4.60;2.90;;;13.40;1.00;;;;;;5096941;28;20355;-81
2023/06/15 04:16:43;;;;;;;5.37;2.50;;;13.40;1.00;;;;;;5098594;28;20190;-80
2023/06/15 04:19:09;;;;;;;6.93;2.60;;;13.40;1.00;;;;;;5096164;28;20231;-80
2023/06/15 04:21:36;;;;;;;3.63;2.60;;;13.50;1.00;;;;;;5096499;28;20263;-79
2023/06/15 04:24:02;;;;;;;4.60;3.00;;;13.50;1.00;;;;;;5095902;28;20220;-81
2023/06/15 04:26:28;;;;;;;3.90;2.40;;;13.40;1.00;;;;;;5095731;28;20193;-79
2023/06/15 04:28:57;;;;;;;4.87;2.47;;;13.50;1.00;;;;;;5095698;28;20158;-81
2023/06/15 04:31:24;;;;;;;5.40;2.67;;;13.50;1.00;;;;;;5096760;28;20211;-81
2023/06/15 04:33:50;;;;;;;5.57;2.63;;;13.50;1.00;;;;;;5097950;28;20186;-79
2023/06/15 04:36:16;;;;;;;3.70;3.03;;;13.50;1.00;;;;;;5097514;28;20178;-81
2023/06/15 04:38:49;;;;;;;3.63;2.70;;;13.50;1.00;;;;;;5093809;28;20612;-79
2023/06/15 04:41:16;;;;;;;4.07;2.83;;;13.60;1.00;;;;;;5094271;28;20147;-81
2023/06/15 04:43:42;;;;;;;3.83;3.00;;;13.60;1.00;;;;;;5092870;28;20658;-80
2023/06/15 04:46:08;;;;;;;3.50;2.60;;;13.60;1.00;;;;;;5096446;28;20225;-80
2023/06/15 04:48:34;;;;;;;3.33;2.83;;;13.60;1.00;;;;;;5097343;28;20193;-80
2023/06/15 04:50:59;;;;;;;6.00;3.10;;;13.60;1.00;;;;;;5096545;28;20178;-80
2023/06/15 04:53:25;;;;;;;6.70;2.60;;;13.60;1.00;;;;;;5096937;28;20251;-80
2023/06/15 04:55:51;;;;;;;3.10;2.50;;;13.70;1.00;;;;;;5097279;28;20193;-78
2023/06/15 04:58:17;;;;;;;3.07;2.50;;;13.70;1.00;;;;;;5097542;28;20170;-80
2023/06/15 05:00:43;;;;;;;5.57;2.77;;;13.70;1.00;;;;;;5096717;28;20645;-79
2023/06/15 05:03:10;;;;;;;3.13;2.43;;;13.70;1.00;;;;;;5095153;28;20255;-80
2023/06/15 05:05:35;;;;;;;4.63;2.97;;;13.80;1.00;;;;;;5097152;28;20634;-78
2023/06/15 05:08:01;;;;;;;3.23;2.90;;;13.80;1.00;;;;;;5095365;28;20177;-80
2023/06/15 05:10:26;;;;;;;4.27;2.83;;;13.90;1.00;;;;;;5095297;28;20265;-79
2023/06/15 05:12:52;;;;;;;3.90;3.03;;;13.90;1.00;;;;;;5094622;28;20228;-80
2023/06/15 05:15:18;;;;;;;5.33;3.40;;;14.00;1.00;;;;;;5097679;28;20181;-80
2023/06/15 05:17:43;;;;;;;4.17;3.27;;;14.00;1.00;;;;;;5103899;28;20186;-79
2023/06/15 05:20:10;;;;;;;4.30;3.00;;;14.10;1.00;;;;;;5103139;28;20174;-80
2023/06/15 05:22:35;;;;;;;4.27;3.20;;;14.10;4.60;;;;;;5103163;28;20681;-81
2023/06/15 05:25:03;;;;;;;3.93;3.03;;;14.20;3.90;;;;;;5101530;28;20254;-80
2023/06/15 05:27:28;;;;;;;5.07;2.77;;;14.30;6.90;;;;;;5099754;28;20584;-81
2023/06/15 05:29:54;;;;;;;3.97;3.00;;;14.30;7.20;;;;;;5100549;28;20250;-80
2023/06/15 05:32:20;;;;;;;4.37;3.30;;;14.40;8.90;;;;;;5101303;28;20205;-81
2023/06/15 05:34:46;;;;;;;3.73;3.00;;;14.40;7.50;;;;;;5100680;28;20261;-81
2023/06/15 05:37:11;;;;;;;5.43;3.10;;;14.70;12.70;;;;;;5100631;28;20198;-81
2023/06/15 05:39:37;;;;;;;4.97;3.10;;;14.60;16.90;;;;;;5101534;28;20174;-83
2023/06/15 05:42:02;;;;;;;5.53;2.97;;;14.60;24.00;;;;;;5099596;28;20597;-79
2023/06/15 05:44:28;;;;;;;6.17;3.23;;;14.70;18.10;;;;;;5116493;28;20217;-81
2023/06/15 05:46:54;;;;;;;4.33;3.40;;;14.80;17.80;;;;;;5115965;28;20265;-77
2023/06/15 05:49:19;;;;;;;3.13;2.83;;;14.90;25.80;;;;;;5118470;28;20166;-79
2023/06/15 05:51:45;;;;;;;4.93;3.13;;;14.90;19.00;;;;;;5116591;28;20182;-79
2023/06/15 05:54:11;;;;;;;3.43;3.00;;;15.00;23.70;;;;;;5118466;28;20182;-80
2023/06/15 05:56:36;;;;;;;5.40;3.33;;;15.00;31.40;;;;;;5107187;28;20182;-80
2023/06/15 05:59:02;;;;;;;4.37;3.20;;;15.10;29.40;;;;;;5099027;28;20179;-80
2023/06/15 06:01:28;;;;;;;7.97;3.47;;;15.20;28.00;;;;;;5101282;28;20645;-80
2023/06/15 06:03:53;;;;;;;5.30;3.77;;;15.30;28.70;;;;;;5100210;28;20220;-79
2023/06/15 06:06:19;;;;;;;4.00;3.30;;;15.40;35.70;;;;;;5100815;28;20679;-79
2023/06/15 06:08:46;;;;;;;12.73;4.33;;;15.50;31.90;;;;;;5100561;28;20178;-80
2023/06/15 06:11:12;;;;;;;5.50;4.00;;;15.60;30.10;;;;;;5101411;28;20197;-80
2023/06/15 06:13:37;;;;;;;5.07;3.57;;;15.70;33.90;;;;;;5100918;28;20586;-80
2023/06/15 06:16:03;;;;;;;3.37;3.07;;;15.80;38.20;;;;;;5098975;28;20208;-80
2023/06/15 06:18:29;;;;;;;4.27;3.67;;;15.90;40.90;;;;;;5099879;28;20185;-80
2023/06/15 06:20:55;;;;;;;7.50;3.10;;;15.90;32.00;;;;;;5100339;28;20162;-80
2023/06/15 06:23:20;;;;;;;5.30;3.20;;;16.00;28.90;;;;;;5099019;28;20223;-80
2023/06/15 06:25:46;;;;;;;7.77;3.37;;;16.10;20.00;;;;;;5099151;28;20185;-79
2023/06/15 06:28:11;;;;;;;7.27;3.60;;;16.30;2.80;;;;;;5099176;28;20259;-80
2023/06/15 06:30:38;;;;;;;5.70;3.03;;;16.30;1.00;;;;;;5100230;28;20174;-80
2023/06/15 06:33:04;;;;;;;7.13;3.37;;;16.40;1.00;;;;;;5098574;28;20193;-80
2023/06/15 06:35:30;;;;;;;6.10;3.10;;;16.50;1.00;;;;;;5099205;28;20170;-79
2023/06/15 06:37:55;;;;;;;5.90;3.20;;;16.60;2.10;;;;;;5100896;28;20184;-80
2023/06/15 06:40:21;;;;;;;6.10;3.27;;;16.70;5.00;;;;;;5099361;28;20713;-80
2023/06/15 06:42:46;;;;;;;4.60;2.80;;;16.80;1.00;;;;;;5098834;28;20249;-80
2023/06/15 06:45:12;;;;;;;5.53;3.30;;;16.90;1.00;;;;;;5098328;28;20178;-80
2023/06/15 06:47:38;;;;;;;7.27;2.97;;;17.10;1.00;;;;;;5099155;28;20288;-81
2023/06/15 06:50:05;;;;;;;3.53;2.93;;;17.10;1.00;;;;;;5098587;28;20618;-80
2023/06/15 06:52:31;;;;;;;3.00;2.50;;;17.30;1.00;;;;;;5097544;28;20236;-80
2023/06/15 06:54:56;;;;;;;4.63;2.90;;;17.40;1.00;;;;;;5096785;28;20178;-80
2023/06/15 06:57:22;;;;;;;4.13;2.97;;;17.50;1.00;;;;;;5098002;28;20178;-78
2023/06/15 06:59:48;;;;;;;5.03;2.80;;;17.60;1.00;;;;;;5096899;28;20182;-80
2023/06/15 07:02:13;;;;;;;4.37;2.37;;;17.70;1.00;;;;;;5096851;28;20183;-81
2023/06/15 07:04:39;;;;;;;3.87;2.20;;;17.80;1.00;;;;;;5098539;28;20209;-81
2023/06/15 07:07:05;;;;;;;4.50;2.63;;;18.00;99.90;;;;;;5098966;28;20225;-80
2023/06/15 07:09:31;;;;;;;4.97;2.40;;;17.90;99.90;;;;;;5099049;28;20223;-81
2023/06/15 07:11:56;;;;;;;4.90;2.50;;;18.00;99.90;;;;;;5104789;28;20181;-81
2023/06/15 07:14:22;;;;;;;3.60;2.50;;;18.10;99.90;;;;;;5106732;28;20198;-79
2023/06/15 07:16:47;;;;;;;6.27;3.00;;;18.30;99.90;;;;;;5113665;28;20238;-79
2023/06/15 07:19:13;;;;;;;3.00;2.53;;;18.40;99.90;;;;;;5113720;28;20186;-78
2023/06/15 07:21:39;;;;;;;8.20;2.47;;;18.50;99.90;;;;;;5103700;28;20227;-80
2023/06/15 07:24:05;;;;;;;6.07;2.40;;;18.60;99.90;;;;;;5097648;28;20198;-80
2023/06/15 07:26:31;;;;;;;2.60;2.23;;;18.70;99.90;;;;;;5097596;28;20221;-79
2023/06/15 07:28:56;;;;;;;5.27;2.43;;;18.80;26.40;;;;;;5097395;28;20243;-80
2023/06/15 07:31:22;;;;;;;3.87;2.60;;;18.90;1.00;;;;;;5097076;28;20699;-80
2023/06/15 07:33:47;;;;;;;4.37;2.60;;;19.00;1.00;;;;;;5098297;28;20187;-81
2023/06/15 07:36:13;;;;;;;6.23;2.47;;;19.20;1.00;;;;;;5097599;28;20201;-79
2023/06/15 07:38:40;;;;;;;5.43;2.70;;;19.20;1.00;;;;;;5097111;28;20174;-80
2023/06/15 07:41:06;;;;;;;4.97;2.43;;;19.30;1.00;;;;;;5098323;28;20166;-81
2023/06/15 07:43:32;;;;;;;3.70;1.83;;;19.40;1.00;;;;;;5097438;28;20638;-80
2023/06/15 07:45:58;;;;;;;4.73;2.40;;;19.40;1.00;;;;;;5096351;28;20251;-80
2023/06/15 07:48:23;;;;;;;5.90;2.20;;;19.50;1.00;;;;;;5097210;28;20170;-80
2023/06/15 07:50:49;;;;;;;7.43;2.57;;;19.70;1.00;;;;;;5097370;28;20173;-80
2023/06/15 07:53:15;;;;;;;3.80;2.53;;;19.80;1.00;;;;;;5096406;28;20634;-80
2023/06/15 07:55:40;;;;;;;6.87;2.53;;;19.90;1.00;;;;;;5096828;28;20257;-81
2023/06/15 07:58:06;;;;;;;7.83;2.80;;;19.90;1.00;;;;;;5078599;28;20166;-80
2023/06/15 08:00:32;;;;;;;3.87;2.30;;;20.00;1.00;;;;;;5096478;28;20163;-79
2023/06/15 08:02:58;;;;;;;6.33;2.40;;;20.10;1.00;;;;;;5096644;28;20190;-80
2023/06/15 08:05:23;;;;;;;6.03;2.10;;;20.00;1.00;;;;;;5095689;28;20170;-80
2023/06/15 08:07:49;;;;;;;9.40;2.50;;;20.20;1.00;;;;;;5094788;28;20288;-80
2023/06/15 08:10:15;;;;;;;4.53;1.97;;;20.30;99.90;;;;;;5094791;28;20174;-80
2023/06/15 08:12:40;;;;;;;4.50;2.60;;;20.40;99.90;;;;;;5096251;28;20194;-80
2023/06/15 08:15:06;;;;;;;3.13;2.17;;;20.60;99.90;;;;;;5096433;28;20515;-81
2023/06/15 08:17:32;;;;;;;3.87;2.33;;;20.90;99.90;;;;;;5096357;28;20178;-81
2023/06/15 08:19:57;;;;;;;4.77;2.53;;;20.90;99.90;;;;;;5095616;28;20255;-80
2023/06/15 08:22:23;;;;;;;4.97;2.47;;;21.00;99.90;;;;;;5095460;28;20171;-80
2023/06/15 08:24:48;;;;;;;4.27;2.20;;;21.10;99.90;;;;;;5094742;28;20200;-80
2023/06/15 08:27:14;;;;;;;3.47;2.60;;;21.10;94.40;;;;;;5094476;28;20194;-80
2023/06/15 08:29:43;;;;;;;3.50;2.20;;;21.10;26.60;;;;;;5094298;28;20177;-80
2023/06/15 08:32:13;;;;;;;4.93;2.70;;;21.20;41.50;;;;;;5094812;28;20504;-79
2023/06/15 08:34:39;;;;;;;4.70;1.87;;;21.30;1.00;;;;;;5096174;28;20158;-80
2023/06/15 08:37:05;;;;;;;2.70;2.50;;;21.40;1.00;;;;;;5096567;28;20167;-80
2023/06/15 08:39:31;;;;;;;6.63;2.70;;;21.40;42.00;;;;;;5096911;28;20219;-81
2023/06/15 08:41:57;;;;;;;4.03;2.40;;;21.50;1.00;;;;;;5097094;28;20548;-81
2023/06/15 08:44:23;;;;;;;2.50;2.20;;;21.60;1.00;;;;;;5096531;28;20685;-81
2023/06/15 08:46:49;;;;;;;6.53;2.43;;;21.60;1.00;;;;;;5097698;28;20201;-83
2023/06/15 08:49:15;;;;;;;10.03;2.43;;;21.80;81.80;;;;;;5096225;28;20257;-81
2023/06/15 08:51:42;;;;;;;5.77;2.10;;;21.90;99.90;;;;;;5099216;28;20303;-80
2023/06/15 08:54:09;;;;;;;10.40;2.40;;;22.00;1.00;;;;;;5098747;28;20193;-81
2023/06/15 08:56:38;;;;;;;5.70;2.30;;;22.20;99.90;;;;;;5097246;28;20189;-82
2023/06/15 08:59:04;;;;;;;5.73;2.53;;;22.30;1.00;;;;;;5099519;28;20311;-81
2023/06/15 09:01:32;;;;;;;5.50;2.87;;;22.40;1.00;;;;;;5097597;28;20208;-82
2023/06/15 09:03:58;;;;;;;4.97;2.40;;;22.60;99.90;;;;;;5096631;28;20194;-81
2023/06/15 09:06:23;;;;;;;6.17;2.50;;;22.70;1.00;;;;;;5097193;28;20289;-81
2023/06/15 09:08:51;;;;;;;3.70;2.50;;;22.90;1.00;;;;;;5095746;28;20220;-81
2023/06/15 09:11:17;;;;;;;4.40;2.67;;;23.00;1.00;;;;;;5095732;28;20549;-80
2023/06/15 09:13:43;;;;;;;5.83;2.80;;;23.10;99.90;;;;;;5095616;28;20237;-81
2023/06/15 09:16:09;;;;;;;10.43;2.83;;;23.10;1.00;;;;;;5095203;28;20265;-80
2023/06/15 09:18:45;;;;;;;6.30;3.10;;;23.20;1.00;;;;;;5097576;28;20166;-80
2023/06/15 09:21:16;;;;;;;4.03;2.30;;;23.40;99.90;;;;;;5097630;28;20173;-79
2023/06/15 09:23:46;;;;;;;3.57;2.50;;;23.40;1.00;;;;;;5097616;28;20281;-80
2023/06/15 09:26:25;;;;;;;5.33;2.60;;;23.40;85.60;;;;;;5098553;28;20707;-79
2023/06/15 09:28:54;;;;;;;4.10;2.60;;;23.50;1.00;;;;;;5098110;28;20150;-79
2023/06/15 09:31:29;;;;;;;4.20;2.77;;;23.50;99.90;;;;;;5098457;28;20171;-80
2023/06/15 09:34:12;;;;;;;5.43;2.90;;;23.60;99.90;;;;;;5098357;28;20186;-80
2023/06/15 09:36:44;;;;;;;4.13;2.50;;;23.60;99.90;;;;;;5096744;28;20166;-80
2023/06/15 09:39:12;;;;;;;3.03;2.30;;;23.60;99.90;;;;;;5098397;28;20517;-80
2023/06/15 09:42:00;;;;;;;5.30;2.73;;;23.50;99.90;;;;;;5098054;28;20653;-80
2023/06/15 09:44:27;;;;;;;5.87;2.57;;;23.60;1.00;;;;;;5097090;28;20190;-80
2023/06/15 09:46:57;;;;;;;4.00;2.50;;;23.60;99.90;;;;;;5097713;28;20205;-79
2023/06/15 09:49:27;;;;;;;3.10;2.23;;;23.60;99.90;;;;;;5098129;28;20163;-80
2023/06/15 09:51:54;;;;;;;4.97;2.27;;;23.70;99.90;;;;;;5099428;28;20558;-80
2023/06/15 09:54:28;;;;;;;7.97;2.80;;;23.80;99.90;;;;;;5096938;28;20190;-79
2023/06/15 09:56:53;;;;;;;2.80;2.40;;;23.90;16.50;;;;;;5097066;28;20167;-79
2023/06/15 09:59:20;;;;;;;5.87;2.70;;;24.10;1.00;;;;;;5101618;28;20183;-80
2023/06/15 10:01:48;;;;;;;8.43;2.90;;;23.90;1.00;;;;;;5097803;28;20177;-80
2023/06/15 10:04:16;;;;;;;7.27;2.80;;;24.00;1.00;;;;;;5101813;28;20643;-80
2023/06/15 10:06:45;;;;;;;3.90;2.37;;;24.00;47.50;;;;;;5099717;28;20208;-81
2023/06/15 10:09:15;;;;;;;3.77;3.20;;;24.00;99.90;;;;;;5101468;28;20257;-80
2023/06/15 10:11:42;;;;;;;3.30;2.40;;;23.90;99.90;;;;;;5103846;28;20166;-81
2023/06/15 10:14:23;;;;;;;7.07;3.00;;;23.90;1.00;;;;;;5102125;28;20182;-81
2023/06/15 10:16:55;;;;;;;5.17;2.70;;;23.80;99.90;;;;;;5100198;28;20238;-81
2023/06/15 10:19:23;;;;;;;5.10;2.90;;;23.70;1.00;;;;;;5101083;28;20170;-81
2023/06/15 10:21:50;;;;;;;5.00;3.07;;;23.70;1.00;;;;;;5101035;28;20231;-81
2023/06/15 10:24:19;;;;;;;6.10;2.87;;;23.60;99.90;;;;;;5100857;28;20743;-80
2023/06/15 10:26:45;;;;;;;8.17;3.07;;;23.50;99.90;;;;;;5102560;28;20191;-81
2023/06/15 10:29:23;;;;;;;4.77;2.97;;;23.50;99.90;;;;;;5100695;28;20189;-81
2023/06/15 10:32:02;;;;;;;8.23;2.90;;;23.50;90.10;;;;;;5102587;28;20524;-81
2023/06/15 10:34:45;;;;;;;6.80;2.80;;;23.60;92.70;;;;;;5103276;28;20198;-81
2023/06/15 10:37:28;;;;;;;5.10;2.80;;;23.60;1.00;;;;;;5104180;28;20155;-81
2023/06/15 10:39:59;;;;;;;5.47;3.20;;;23.50;1.00;;;;;;5104367;28;20169;-80
2023/06/15 10:42:26;;;;;;;7.33;3.00;;;23.60;1.00;;;;;;5104170;28;20170;-80
2023/06/15 10:44:51;;;;;;;4.20;2.80;;;23.40;99.90;;;;;;5103762;28;20178;-81
2023/06/15 10:47:21;;;;;;;5.77;3.07;;;23.60;1.00;;;;;;5103883;28;20648;-81
2023/06/15 10:49:51;;;;;;;7.67;2.80;;;23.80;1.00;;;;;;5105733;28;20759;-81
2023/06/15 10:52:17;;;;;;;5.40;3.00;;;23.80;99.90;;;;;;5108006;28;20159;-79
2023/06/15 10:54:43;;;;;;;4.40;2.70;;;23.80;1.00;;;;;;5115856;28;20182;-79
2023/06/15 10:57:09;;;;;;;3.60;2.57;;;23.80;1.00;;;;;;5117289;28;20189;-79
2023/06/15 10:59:46;;;;;;;9.60;2.80;;;23.90;1.00;;;;;;5103822;28;20664;-81
2023/06/15 11:02:32;;;;;;;13.37;3.13;;;24.00;1.00;;;;;;5095328;28;20236;-80
2023/06/15 11:05:08;;;;;;;4.33;2.57;;;24.20;1.00;;;;;;5096807;28;20159;-82
2023/06/15 11:07:41;;;;;;;7.07;3.17;;;24.40;1.00;;;;;;5094944;28;20577;-81
2023/06/15 11:10:13;;;;;;;6.87;2.43;;;24.50;1.00;;;;;;5095094;28;20220;-81
2023/06/15 11:12:44;;;;;;;4.10;2.33;;;24.80;99.30;;;;;;5096090;28;20337;-81
2023/06/15 11:15:13;;;;;;;4.77;2.80;;;25.10;99.90;;;;;;5096989;28;20170;-81
2023/06/15 11:18:02;;;;;;;6.20;2.60;;;25.10;99.90;;;;;;5096827;28;20174;-81
2023/06/15 11:20:37;;;;;;;4.03;2.70;;;25.40;74.20;;;;;;5095391;28;20171;-82
2023/06/15 11:23:10;;;;;;;6.63;2.57;;;25.30;1.00;;;;;;5096296;28;20193;-81
2023/06/15 11:25:37;;;;;;;4.70;2.77;;;25.20;1.00;;;;;;5096963;28;20186;-81
2023/06/15 11:28:03;;;;;;;5.23;2.80;;;25.10;1.00;;;;;;5096187;28;20236;-81
2023/06/15 11:30:29;;;;;;;2.67;2.20;;;25.00;1.00;;;;;;5095944;28;20216;-81
2023/06/15 11:32:55;;;;;;;5.13;2.20;;;25.10;1.00;;;;;;5095631;28;20198;-81
2023/06/15 11:35:21;;;;;;;3.97;2.50;;;25.10;1.00;;;;;;5095345;28;20178;-81
2023/06/15 11:37:47;;;;;;;8.93;2.63;;;25.10;1.00;;;;;;5094235;28;20550;-81
2023/06/15 11:40:16;;;;;;;3.60;2.55;;;25.30;99.90;;;;;;5096295;28;20174;-81
2023/06/15 11:42:42;;;;;;;4.37;3.10;;;25.30;1.00;;;;;;5094311;28;20235;-80
2023/06/15 11:45:18;;;;;;;6.93;2.90;;;25.40;1.00;;;;;;5094139;28;20248;-80
2023/06/15 11:47:45;;;;;;;5.53;2.63;;;25.40;99.90;;;;;;5095283;28;20227;-80
2023/06/15 11:50:11;;;;;;;4.90;2.60;;;25.40;67.30;;;;;;5094213;28;20181;-79
2023/06/15 11:52:43;;;;;;;5.13;2.63;;;25.50;99.90;;;;;;5093339;28;20248;-80
2023/06/15 11:55:13;;;;;;;3.50;2.33;;;25.60;23.20;;;;;;5095495;28;20163;-80
2023/06/15 11:57:41;;;;;;;7.13;2.73;;;25.70;99.90;;;;;;5094782;28;20265;-80
2023/06/15 12:00:08;;;;;;;6.40;2.60;;;25.70;1.00;;;;;;5096109;28;20649;-81
2023/06/15 12:02:35;;;;;;;11.65;2.85;;;25.60;1.00;;;;;;5096406;28;20217;-81
2023/06/15 12:05:02;;;;;;;8.35;2.50;;;25.50;99.90;;;;;;5094367;28;20658;-81
2023/06/15 12:07:30;;;;;;;5.72;2.28;;;25.50;12.90;;;;;;5095039;28;20206;-80
2023/06/15 12:09:56;;;;;;;7.32;2.22;;;25.40;1.00;;;;;;5096827;28;20170;-81
2023/06/15 12:12:33;;;;;;;5.15;2.67;;;25.40;1.00;;;;;;5095373;28;20176;-82
2023/06/15 12:15:04;;;;;;;5.13;3.03;;;25.40;99.90;;;;;;5095869;28;20178;-81
2023/06/15 12:17:33;;;;;;;4.05;2.58;;;25.40;99.90;;;;;;5095533;28;20178;-80
2023/06/15 12:20:10;;;;;;;2.47;2.00;;;25.50;1.00;;;;;;5098534;28;20521;-81
2023/06/15 12:22:46;;;;;;;4.00;2.55;;;25.70;1.00;;;;;;5098544;28;20221;-82
2023/06/15 12:25:14;;;;;;;5.82;2.33;;;25.70;1.00;;;;;;5094557;28;20232;-80
2023/06/15 12:27:45;;;;;;;4.72;2.60;;;25.90;1.00;;;;;;5096291;28;20236;-81
2023/06/15 12:30:15;;;;;;;6.93;2.42;;;26.00;1.00;;;;;;5095902;28;20169;-80
2023/06/15 12:32:45;;;;;;;9.40;2.45;;;26.00;1.00;;;;;;5097539;28;20257;-82
2023/06/15 12:35:32;;;;;;;4.65;2.50;;;25.90;1.00;;;;;;5097306;28;20224;-82
2023/06/15 12:37:58;;;;;;;5.05;2.50;;;25.90;1.00;;;;;;5096708;28;20162;-82
2023/06/15 12:40:24;;;;;;;5.68;2.42;;;25.80;1.00;;;;;;5096779;28;20182;-81
2023/06/15 12:43:05;;;;;;;4.28;2.33;;;25.70;1.00;;;;;;5096335;28;20574;-81
2023/06/15 12:45:33;;;;;;;5.53;2.13;;;25.70;1.00;;;;;;5096189;28;20198;-81
2023/06/15 12:48:00;;;;;;;4.05;2.30;;;25.80;1.00;;;;;;5097635;28;20269;-81
2023/06/15 12:50:28;;;;;;;8.10;2.70;;;25.70;1.00;;;;;;5095679;28;20215;-82
2023/06/15 12:52:57;;;;;;;5.18;2.17;;;25.60;1.00;;;;;;5096410;28;20196;-80
2023/06/15 12:55:24;;;;;;;3.90;2.72;;;25.60;1.00;;;;;;5096955;28;20173;-81
2023/06/15 12:57:50;;;;;;;3.50;2.30;;;25.60;1.00;;;;;;5096338;28;20213;-81